createdAt,value
2023-05-18T00:01:34.023Z,12.90
2023-05-18T00:04:02.222Z,12.88
2023-05-18T00:06:29.589Z,12.98
2023-05-18T00:08:56.995Z,13.19
2023-05-18T00:11:24.135Z,13.22
2023-05-18T00:13:51.166Z,13.31
2023-05-18T00:16:18.273Z,13.37
2023-05-18T00:18:46.341Z,13.43
2023-05-18T00:21:16.393Z,13.37
2023-05-18T00:23:49.729Z,13.18
2023-05-18T00:26:16.978Z,12.99
2023-05-18T00:28:44.939Z,13.02
2023-05-18T00:31:12.255Z,12.99
2023-05-18T00:33:41.305Z,12.94
2023-05-18T00:36:08.541Z,12.92
2023-05-18T00:38:37.021Z,12.89
2023-05-18T00:41:04.163Z,12.98
2023-05-18T00:43:31.198Z,12.96
2023-05-18T00:45:58.761Z,13.03
2023-05-18T00:48:26.163Z,13.08
2023-05-18T00:50:54.073Z,13.11
2023-05-18T00:53:21.125Z,13.08
2023-05-18T00:55:49.332Z,13.08
2023-05-18T00:58:16.779Z,12.94
2023-05-18T01:00:44.240Z,12.89
2023-05-18T01:03:12.208Z,12.80
2023-05-18T01:05:39.389Z,12.60
2023-05-18T01:08:07.163Z,12.39
2023-05-18T01:10:38.247Z,12.38
2023-05-18T01:13:16.552Z,12.42
2023-05-18T01:15:44.916Z,12.54
2023-05-18T01:19:01.300Z,12.67
2023-05-18T01:21:51.881Z,12.70
2023-05-18T01:24:36.308Z,12.70
2023-05-18T01:27:04.810Z,12.65
2023-05-18T01:29:31.941Z,12.63
2023-05-18T01:32:04.031Z,12.55
2023-05-18T01:34:31.229Z,12.38
2023-05-18T01:36:59.867Z,12.43
2023-05-18T01:39:29.293Z,12.51
2023-05-18T01:41:59.839Z,12.57
2023-05-18T01:44:40.569Z,12.68
2023-05-18T01:47:16.246Z,12.55
2023-05-18T01:49:48.558Z,12.62
2023-05-18T01:52:25.124Z,12.64
2023-05-18T01:54:54.673Z,12.65
2023-05-18T01:57:24.219Z,12.71
2023-05-18T01:59:51.730Z,12.68
2023-05-18T02:02:18.993Z,12.80
2023-05-18T02:04:46.242Z,12.76
2023-05-18T02:07:14.387Z,12.81
2023-05-18T02:09:44.373Z,12.81
2023-05-18T02:12:11.838Z,12.84
2023-05-18T02:14:39.467Z,12.80
2023-05-18T02:17:07.834Z,12.83
2023-05-18T02:19:38.318Z,12.90
2023-05-18T02:22:07.116Z,12.91
2023-05-18T02:24:37.612Z,12.97
2023-05-18T02:27:05.977Z,12.96
2023-05-18T02:29:32.969Z,13.01
2023-05-18T02:32:00.125Z,13.13
2023-05-18T02:34:27.660Z,13.21
2023-05-18T02:36:58.215Z,13.33
2023-05-18T02:39:25.346Z,13.36
2023-05-18T02:41:52.364Z,13.38
2023-05-18T02:44:19.915Z,13.42
2023-05-18T02:46:48.967Z,13.57
2023-05-18T02:49:16.396Z,13.62
2023-05-18T02:51:43.538Z,13.63
2023-05-18T02:54:11.802Z,13.65
2023-05-18T02:56:41.915Z,13.71
2023-05-18T02:59:18.300Z,13.73
2023-05-18T03:01:45.573Z,13.81
2023-05-18T03:04:14.104Z,13.80
2023-05-18T03:06:47.833Z,13.86
2023-05-18T03:09:16.722Z,13.97
2023-05-18T03:11:45.965Z,14.08
2023-05-18T03:14:13.244Z,14.16
2023-05-18T03:16:40.657Z,14.21
2023-05-18T03:19:15.455Z,14.31
2023-05-18T03:21:43.123Z,14.35
2023-05-18T03:24:12.243Z,14.46
2023-05-18T03:26:44.401Z,14.50
2023-05-18T03:29:13.675Z,14.55
2023-05-18T03:31:41.624Z,14.65
2023-05-18T03:34:10.674Z,14.72
2023-05-18T03:36:42.623Z,14.82
2023-05-18T03:39:10.774Z,14.89
2023-05-18T03:41:38.307Z,14.93
2023-05-18T03:44:09.685Z,14.98
2023-05-18T03:46:36.937Z,15.04
2023-05-18T03:49:07.085Z,15.10
2023-05-18T03:51:39.288Z,15.13
2023-05-18T03:54:06.400Z,15.34
2023-05-18T03:56:33.649Z,15.49
2023-05-18T03:59:03.611Z,15.55
2023-05-18T04:01:32.952Z,15.67
2023-05-18T04:04:01.837Z,15.61
2023-05-18T04:06:32.718Z,15.85
2023-05-18T04:09:07.183Z,15.83
2023-05-18T04:11:38.527Z,15.95
2023-05-18T04:14:08.844Z,15.88
2023-05-18T04:16:36.074Z,16.02
2023-05-18T04:19:08.142Z,15.99
2023-05-18T04:21:36.462Z,16.22
2023-05-18T04:24:07.393Z,16.24
2023-05-18T04:26:36.759Z,16.32
2023-05-18T04:29:04.240Z,16.44
2023-05-18T04:31:34.830Z,16.58
2023-05-18T04:34:01.870Z,16.67
2023-05-18T04:36:31.996Z,16.73
2023-05-18T04:39:07.994Z,16.92
2023-05-18T04:41:36.034Z,16.97
2023-05-18T04:44:05.353Z,17.15
2023-05-18T04:47:01.791Z,17.30
2023-05-18T04:49:29.534Z,17.38
2023-05-18T04:52:02.813Z,17.63
2023-05-18T04:54:31.043Z,17.58
2023-05-18T04:56:59.309Z,17.67
2023-05-18T04:59:37.498Z,17.84
2023-05-18T05:02:05.859Z,17.92
2023-05-18T05:04:36.123Z,18.06
2023-05-18T05:07:05.811Z,17.98
2023-05-18T05:09:36.271Z,17.92
2023-05-18T05:12:07.438Z,18.03
2023-05-18T05:14:39.933Z,18.04
2023-05-18T05:17:07.226Z,18.14
2023-05-18T05:19:36.603Z,18.36
2023-05-18T05:22:03.853Z,18.47
2023-05-18T05:24:31.302Z,18.67
2023-05-18T05:26:59.952Z,18.77
2023-05-18T05:29:29.299Z,18.89
2023-05-18T05:31:58.868Z,19.04
2023-05-18T05:34:26.085Z,19.14
2023-05-18T05:36:54.121Z,19.19
2023-05-18T05:39:23.714Z,19.27
2023-05-18T05:41:53.696Z,19.29
2023-05-18T05:44:20.920Z,19.44
2023-05-18T05:46:49.375Z,19.55
2023-05-18T05:49:19.476Z,19.78
2023-05-18T05:51:46.784Z,19.93
2023-05-18T05:54:14.922Z,19.92
2023-05-18T05:56:41.995Z,19.96
2023-05-18T05:59:12.743Z,20.05
2023-05-18T06:01:40.080Z,20.13
2023-05-18T06:04:10.906Z,20.28
2023-05-18T06:06:57.500Z,20.32
2023-05-18T06:09:27.451Z,20.44
2023-05-18T06:11:55.508Z,20.60
2023-05-18T06:14:24.364Z,20.76
2023-05-18T06:16:52.218Z,20.86
2023-05-18T06:19:19.966Z,20.89
2023-05-18T06:21:47.290Z,20.98
2023-05-18T06:24:17.719Z,21.17
2023-05-18T06:27:14.203Z,21.40
2023-05-18T06:29:55.061Z,21.26
2023-05-18T06:32:40.746Z,21.19
2023-05-18T06:35:16.160Z,21.39
2023-05-18T06:37:44.718Z,21.36
2023-05-18T06:40:13.440Z,21.42
2023-05-18T06:42:40.565Z,21.48
2023-05-18T06:45:35.237Z,21.68
2023-05-18T06:48:19.066Z,21.75
2023-05-18T06:50:49.078Z,21.95
2023-05-18T06:53:16.412Z,21.93
2023-05-18T06:55:45.761Z,22.02
2023-05-18T06:58:13.288Z,22.08
2023-05-18T07:00:44.004Z,22.08
2023-05-18T07:03:11.538Z,22.20
2023-05-18T07:05:43.783Z,22.48
2023-05-18T07:08:10.896Z,22.52
2023-05-18T07:10:40.470Z,22.43
2023-05-18T07:13:07.605Z,22.48
2023-05-18T07:15:34.876Z,22.66
2023-05-18T07:18:04.358Z,22.82
2023-05-18T07:20:34.990Z,22.82
2023-05-18T07:23:03.143Z,22.66
2023-05-18T07:25:30.478Z,22.51
2023-05-18T07:27:58.841Z,22.55
2023-05-18T07:30:28.290Z,22.58
2023-05-18T07:33:15.582Z,22.81
2023-05-18T07:35:45.980Z,23.03
2023-05-18T07:38:13.586Z,22.68
2023-05-18T07:40:45.448Z,22.38
2023-05-18T07:43:31.305Z,22.89
2023-05-18T07:45:58.517Z,23.16
2023-05-18T07:48:25.782Z,23.36
2023-05-18T07:51:12.224Z,23.48
2023-05-18T07:53:42.251Z,23.68
2023-05-18T07:56:09.488Z,23.55
2023-05-18T07:58:37.582Z,23.63
2023-05-18T08:01:04.708Z,23.56
2023-05-18T08:03:33.150Z,23.92
2023-05-18T08:06:00.915Z,24.15
2023-05-18T08:08:29.073Z,23.99
2023-05-18T08:10:59.786Z,23.84
2023-05-18T08:13:26.894Z,23.68
2023-05-18T08:16:12.674Z,24.32
2023-05-18T08:18:40.552Z,24.41
2023-05-18T08:21:10.199Z,24.71
2023-05-18T08:23:39.589Z,24.87
2023-05-18T08:26:08.406Z,24.88
2023-05-18T08:28:35.525Z,25.07
2023-05-18T08:31:02.635Z,25.56
2023-05-18T08:33:29.778Z,25.70
2023-05-18T08:35:56.795Z,24.45
2023-05-18T08:38:23.978Z,24.70
2023-05-18T08:40:59.919Z,25.23
2023-05-18T08:43:33.488Z,25.79
2023-05-18T08:46:25.866Z,25.79
2023-05-18T08:48:54.026Z,25.28
2023-05-18T08:51:22.162Z,25.66
2023-05-18T08:53:53.990Z,26.24
2023-05-18T08:56:24.755Z,26.54
2023-05-18T08:58:55.110Z,26.75
2023-05-18T09:01:28.853Z,27.09
2023-05-18T09:03:58.284Z,27.87
2023-05-18T09:06:26.323Z,28.66
2023-05-18T09:08:54.674Z,28.80
2023-05-18T09:11:26.905Z,28.63
2023-05-18T09:13:55.196Z,28.33
2023-05-18T09:16:22.503Z,27.70
2023-05-18T09:18:49.778Z,27.36
2023-05-18T09:21:16.983Z,28.25
2023-05-18T09:23:45.010Z,29.12
2023-05-18T09:26:13.524Z,30.05
2023-05-18T09:28:42.358Z,29.48
2023-05-18T09:31:19.460Z,28.87
2023-05-18T09:33:47.571Z,29.43
2023-05-18T09:36:16.689Z,29.81
2023-05-18T09:38:48.231Z,30.10
2023-05-18T09:41:20.387Z,29.87
2023-05-18T09:50:37.613Z,26.87
2023-05-18T09:53:25.050Z,26.64
2023-05-18T09:55:52.218Z,26.32
2023-05-18T09:58:24.727Z,26.23
2023-05-18T10:00:57.141Z,27.34
2023-05-18T10:03:25.311Z,28.71
2023-05-18T10:05:52.391Z,29.45
2023-05-18T10:08:25.961Z,29.84
2023-05-18T10:10:53.093Z,29.69
2023-05-18T10:13:26.519Z,28.35
2023-05-18T10:16:00.520Z,27.42
2023-05-18T10:18:32.419Z,27.08
2023-05-18T10:21:01.924Z,29.00
2023-05-18T10:23:32.860Z,30.57
2023-05-18T10:26:00.553Z,31.44
2023-05-18T10:28:41.545Z,31.29
2023-05-18T10:31:16.226Z,31.47
2023-05-18T10:33:46.530Z,30.57
2023-05-18T10:36:13.661Z,30.02
2023-05-18T10:38:45.516Z,30.09
2023-05-18T10:41:16.326Z,29.89
2023-05-18T10:43:45.621Z,30.20
2023-05-18T10:46:16.192Z,31.70
2023-05-18T10:51:14.079Z,31.80
2023-05-18T10:53:43.980Z,32.10
2023-05-18T10:56:11.420Z,32.22
2023-05-18T10:58:39.025Z,31.67
2023-05-18T11:01:09.445Z,31.00
2023-05-18T11:03:38.755Z,31.77
2023-05-18T11:06:09.101Z,32.03
2023-05-18T11:08:49.526Z,32.75
2023-05-18T11:11:19.148Z,33.75
2023-05-18T11:13:51.553Z,34.45
2023-05-18T11:16:20.050Z,34.86
2023-05-18T11:18:52.586Z,35.08
2023-05-18T11:24:31.610Z,34.69
2023-05-18T11:27:03.781Z,35.30
2023-05-18T11:29:32.826Z,35.97
2023-05-18T11:32:02.757Z,34.46
2023-05-18T11:34:42.406Z,32.85
2023-05-18T11:37:10.453Z,33.49
2023-05-18T11:39:44.697Z,34.60
2023-05-18T11:42:15.190Z,35.79
2023-05-18T11:44:42.023Z,36.20
2023-05-18T11:47:34.089Z,35.67
2023-05-18T11:50:01.033Z,35.81
2023-05-18T11:52:27.917Z,36.14
2023-05-18T11:54:55.767Z,36.31
2023-05-18T11:57:35.250Z,35.70
2023-05-18T12:00:12.377Z,34.43
2023-05-18T12:02:41.928Z,34.44
2023-05-18T12:05:09.713Z,33.03
2023-05-18T12:07:36.783Z,30.81
2023-05-18T12:10:04.484Z,29.10
2023-05-18T12:12:31.822Z,30.05
2023-05-18T12:14:59.974Z,31.34
2023-05-18T12:17:40.842Z,30.26
2023-05-18T12:20:08.962Z,29.24
2023-05-18T12:22:37.158Z,28.79
2023-05-18T12:25:04.099Z,28.71
2023-05-18T12:27:30.923Z,28.53
2023-05-18T12:29:57.848Z,28.59
2023-05-18T12:32:24.684Z,30.80
2023-05-18T12:34:52.667Z,33.02
2023-05-18T12:37:23.890Z,35.14
2023-05-18T12:39:54.575Z,36.55
2023-05-18T12:42:21.471Z,36.74
2023-05-18T12:44:48.327Z,35.61
2023-05-18T12:47:15.262Z,35.15
2023-05-18T12:49:48.580Z,34.51
2023-05-18T12:52:16.810Z,34.09
2023-05-18T12:54:55.933Z,35.37
2023-05-18T12:57:25.746Z,36.64
2023-05-18T12:59:53.881Z,36.71
2023-05-18T13:02:31.319Z,36.98
2023-05-18T13:05:08.934Z,36.72
2023-05-18T13:07:36.420Z,35.74
2023-05-18T13:10:13.658Z,35.61
2023-05-18T13:12:43.614Z,35.88
2023-05-18T13:15:14.882Z,36.13
2023-05-18T13:18:03.068Z,35.91
2023-05-18T13:20:51.113Z,36.29
2023-05-18T13:23:21.929Z,32.67
2023-05-18T13:25:48.868Z,29.67
2023-05-18T13:28:26.303Z,28.47
2023-05-18T13:30:53.404Z,29.18
2023-05-18T13:33:20.315Z,31.49
2023-05-18T13:35:48.699Z,34.18
2023-05-18T13:38:16.097Z,36.11
2023-05-18T13:40:42.886Z,37.33
2023-05-18T13:43:12.030Z,38.03
2023-05-18T13:45:40.366Z,37.56
2023-05-18T13:48:11.943Z,38.11
2023-05-18T13:50:39.690Z,38.64
2023-05-18T13:53:07.122Z,36.94
2023-05-18T13:55:34.357Z,35.85
2023-05-18T13:58:01.252Z,35.01
2023-05-18T14:00:28.611Z,35.33
2023-05-18T14:02:56.591Z,36.11
2023-05-18T14:05:23.804Z,35.78
2023-05-18T14:07:52.628Z,32.81
2023-05-18T14:10:20.126Z,33.85
2023-05-18T14:12:47.107Z,34.96
2023-05-18T14:15:14.283Z,35.92
2023-05-18T14:17:41.478Z,35.95
2023-05-18T14:20:09.603Z,35.46
2023-05-18T14:22:41.824Z,35.54
2023-05-18T14:25:09.232Z,35.08
2023-05-18T14:27:36.066Z,32.27
2023-05-18T14:30:02.876Z,31.13
2023-05-18T14:32:29.973Z,30.11
2023-05-18T14:34:58.264Z,30.59
2023-05-18T14:37:25.249Z,32.06
2023-05-18T14:39:52.062Z,32.43
2023-05-18T14:42:18.889Z,33.33
2023-05-18T14:44:47.926Z,34.02
2023-05-18T14:47:14.854Z,33.76
2023-05-18T14:49:44.433Z,34.02
2023-05-18T14:52:11.461Z,34.84
2023-05-18T14:54:38.288Z,35.39
2023-05-18T14:57:05.483Z,34.95
2023-05-18T14:59:32.302Z,34.58
2023-05-18T15:01:59.690Z,33.46
2023-05-18T15:04:26.586Z,33.81
2023-05-18T15:06:53.523Z,34.37
2023-05-18T15:09:20.556Z,33.67
2023-05-18T15:11:47.460Z,33.34
2023-05-18T15:14:14.408Z,32.68
2023-05-18T15:16:41.583Z,32.46
2023-05-18T15:19:08.649Z,32.63
2023-05-18T15:21:35.511Z,32.76
2023-05-18T15:24:02.380Z,31.62
2023-05-18T15:26:29.449Z,30.80
2023-05-18T15:28:56.601Z,28.96
2023-05-18T15:31:23.627Z,27.92
2023-05-18T15:33:55.798Z,27.55
2023-05-18T15:36:22.599Z,27.08
2023-05-18T15:38:49.683Z,26.92
2023-05-18T15:41:23.359Z,26.94
2023-05-18T15:43:55.758Z,26.42
2023-05-18T15:46:38.166Z,25.65
2023-05-18T15:49:05.279Z,25.30
2023-05-18T15:51:32.201Z,25.04
2023-05-18T15:53:59.197Z,24.65
2023-05-18T15:56:26.229Z,24.37
2023-05-18T15:58:53.256Z,24.25
2023-05-18T16:01:20.541Z,24.09
2023-05-18T16:03:47.638Z,23.97
2023-05-18T16:06:14.633Z,23.81
2023-05-18T16:08:41.636Z,23.61
2023-05-18T16:11:08.488Z,23.42
2023-05-18T16:13:35.332Z,23.14
2023-05-18T16:16:03.208Z,22.88
2023-05-18T16:18:31.850Z,22.82
2023-05-18T16:20:58.925Z,22.68
2023-05-18T16:23:28.469Z,22.45
2023-05-18T16:29:56.279Z,22.23
2023-05-18T16:32:24.742Z,21.97
2023-05-18T16:43:53.137Z,21.28
2023-05-18T16:46:20.618Z,21.26
2023-05-18T16:48:47.475Z,21.24
2023-05-18T16:51:14.722Z,21.06
2023-05-18T16:53:42.825Z,20.89
2023-05-18T16:56:19.892Z,20.78
2023-05-18T16:58:52.405Z,20.58
2023-05-18T17:01:43.296Z,20.48
2023-05-18T17:04:10.683Z,20.41
2023-05-18T17:06:38.029Z,20.23
2023-05-18T17:09:06.449Z,20.14
2023-05-18T17:11:33.504Z,20.06
2023-05-18T17:14:01.666Z,19.90
2023-05-18T17:16:30.377Z,19.71
2023-05-18T17:18:57.879Z,19.52
2023-05-18T17:21:26.766Z,19.39
2023-05-18T17:23:53.727Z,19.42
2023-05-18T17:26:21.600Z,19.36
2023-05-18T17:29:17.121Z,19.18
2023-05-18T17:31:45.964Z,18.96
2023-05-18T17:37:17.270Z,18.78
2023-05-18T17:39:44.114Z,18.75
2023-05-18T17:42:10.958Z,18.68
2023-05-18T17:44:40.508Z,18.58
2023-05-18T17:47:13.775Z,18.59
2023-05-18T17:49:42.469Z,18.55
2023-05-18T17:52:09.337Z,18.45
2023-05-18T17:54:36.198Z,18.48
2023-05-18T17:57:03.012Z,18.45
2023-05-18T17:59:29.831Z,18.32
2023-05-18T18:02:00.167Z,18.17
2023-05-18T18:04:27.107Z,18.06
2023-05-18T18:06:58.744Z,17.95
2023-05-18T18:09:25.849Z,17.88
2023-05-18T18:11:52.746Z,17.83
2023-05-18T18:14:19.703Z,17.74
2023-05-18T18:16:50.390Z,17.60
2023-05-18T18:19:17.430Z,17.57
2023-05-18T18:21:44.452Z,17.48
2023-05-18T18:24:11.491Z,17.45
2023-05-18T18:26:40.646Z,17.46
2023-05-18T18:29:10.555Z,17.36
2023-05-18T18:31:40.686Z,17.26
2023-05-18T18:34:07.881Z,17.27
2023-05-18T18:36:34.747Z,17.26
2023-05-18T18:45:08.460Z,17.04
2023-05-18T18:47:36.763Z,16.99
2023-05-18T18:50:05.386Z,16.95
2023-05-18T18:52:32.664Z,16.90
2023-05-18T18:54:59.706Z,16.95
2023-05-18T18:57:26.503Z,16.90
2023-05-18T18:59:53.747Z,16.90
2023-05-18T19:02:21.466Z,16.83
2023-05-18T19:04:48.437Z,16.82
2023-05-18T19:07:15.289Z,16.76
2023-05-18T19:09:46.140Z,16.77
2023-05-18T19:12:13.205Z,16.73
2023-05-18T19:14:40.153Z,16.64
2023-05-18T19:17:07.127Z,16.59
2023-05-18T19:19:34.133Z,16.54
2023-05-18T19:22:01.185Z,16.57
2023-05-18T19:24:28.376Z,16.57
2023-05-18T19:26:55.584Z,16.50
2023-05-18T19:29:25.148Z,16.44
2023-05-18T19:31:55.436Z,16.39
2023-05-18T19:34:22.629Z,16.32
2023-05-18T19:36:53.089Z,16.26
2023-05-18T19:39:20.076Z,16.27
2023-05-18T19:41:47.080Z,16.25
2023-05-18T19:44:14.680Z,16.28
2023-05-18T19:46:41.691Z,16.22
2023-05-18T19:49:10.281Z,16.16
2023-05-18T19:51:38.615Z,16.12
2023-05-18T19:54:08.377Z,16.08
2023-05-18T19:56:37.768Z,16.04
2023-05-18T19:59:05.040Z,16.01
2023-05-18T20:01:32.473Z,15.93
2023-05-18T20:04:00.323Z,15.93
2023-05-18T20:06:32.032Z,15.91
2023-05-18T20:08:58.950Z,15.87
2023-05-18T20:11:27.117Z,15.79
2023-05-18T20:13:54.002Z,15.84
2023-05-18T20:19:18.153Z,15.72
2023-05-18T20:21:47.742Z,15.70
2023-05-18T20:24:14.805Z,15.68
2023-05-18T20:26:42.193Z,15.59
2023-05-18T20:29:09.163Z,15.53
2023-05-18T20:31:36.024Z,15.52
2023-05-18T20:34:02.913Z,15.48
2023-05-18T20:36:29.880Z,15.49
2023-05-18T20:38:56.794Z,15.46
2023-05-18T20:41:23.701Z,15.39
2023-05-18T20:44:04.343Z,15.32
2023-05-18T20:46:34.073Z,15.25
2023-05-18T20:49:01.399Z,15.23
2023-05-18T20:51:28.434Z,15.21
2023-05-18T20:53:55.588Z,15.18
2023-05-18T20:56:26.905Z,15.10
2023-05-18T20:58:54.645Z,15.06
2023-05-18T21:01:21.649Z,15.03
2023-05-18T21:03:50.377Z,15.00
2023-05-18T21:06:17.334Z,14.97
2023-05-18T21:08:45.457Z,14.95
2023-05-18T21:11:13.679Z,14.87
2023-05-18T21:13:42.947Z,14.88
2023-05-18T21:16:10.905Z,14.88
2023-05-18T21:18:37.938Z,14.85
2023-05-18T21:21:04.862Z,14.76
2023-05-18T21:23:31.736Z,14.67
2023-05-18T21:25:58.612Z,14.64
2023-05-18T21:28:25.569Z,14.69
2023-05-18T21:30:52.810Z,14.68
2023-05-18T21:33:19.820Z,14.66
2023-05-18T21:35:46.651Z,14.66
2023-05-18T21:38:13.497Z,14.65
2023-05-18T21:40:43.522Z,14.60
2023-05-18T21:43:10.893Z,14.51
2023-05-18T21:45:37.818Z,14.52
2023-05-18T21:48:05.042Z,14.51
2023-05-18T21:50:35.122Z,14.47
2023-05-18T21:53:03.496Z,14.46
2023-05-18T21:55:31.289Z,14.42
2023-05-18T21:57:58.153Z,14.37
2023-05-18T22:00:24.992Z,14.28
2023-05-18T22:02:51.969Z,14.27
2023-05-18T22:05:18.940Z,14.25
2023-05-18T22:07:46.094Z,14.22
2023-05-18T22:10:12.921Z,14.21
2023-05-18T22:12:41.202Z,14.22
2023-05-18T22:15:08.828Z,14.26
2023-05-18T22:17:36.813Z,14.31
2023-05-18T22:20:06.028Z,14.34
2023-05-18T22:22:32.862Z,14.29
2023-05-18T22:24:59.812Z,14.24
2023-05-18T22:27:26.823Z,14.30
2023-05-18T22:29:53.667Z,14.40
2023-05-18T22:32:20.897Z,14.48
2023-05-18T22:34:47.817Z,14.56
2023-05-18T22:37:14.610Z,14.66
2023-05-18T22:39:41.473Z,14.76
2023-05-18T22:42:08.390Z,14.84
2023-05-18T22:44:35.144Z,14.90
2023-05-18T22:47:04.690Z,15.01
2023-05-18T22:49:31.575Z,15.07
2023-05-18T22:51:58.423Z,15.12
2023-05-18T22:54:25.164Z,15.15
2023-05-18T22:56:51.986Z,15.11
2023-05-18T22:59:20.372Z,15.11
2023-05-18T23:01:52.746Z,15.10
2023-05-18T23:04:19.810Z,15.06
2023-05-18T23:06:49.590Z,15.04
2023-05-18T23:09:17.093Z,15.05
2023-05-18T23:11:48.652Z,15.08
2023-05-18T23:14:15.528Z,15.03
2023-05-18T23:16:43.096Z,14.99
2023-05-18T23:19:12.484Z,14.98
2023-05-18T23:21:39.974Z,14.99
2023-05-18T23:24:08.000Z,14.97
2023-05-18T23:26:34.761Z,14.98
2023-05-18T23:29:02.019Z,14.97
2023-05-18T23:31:28.978Z,14.94
2023-05-18T23:33:56.114Z,14.94
2023-05-18T23:36:22.994Z,14.94
2023-05-18T23:38:49.999Z,14.93
2023-05-18T23:41:16.949Z,14.91
2023-05-18T23:43:43.846Z,14.92
2023-05-18T23:46:10.997Z,14.97
2023-05-18T23:48:38.494Z,14.98
2023-05-18T23:51:05.892Z,14.99
2023-05-18T23:53:32.804Z,14.97
2023-05-18T23:55:59.805Z,14.89
2023-05-18T23:58:30.429Z,14.87
